Time;durP1;ratioP1;P1;durP2;ratioP2;P2;SDS_P1;SDS_P2;PMS_P1;PMS_P2;Temp;Humidity;BMP_temperature;BMP_pressure;BME280_temperature;BME280_humidity;BME280_pressure;Samples;Min_cycle;Max_cycle;Signal;HPM_P1;HPM_P2
2020/12/15 00:01:46;;;;;;;10.50;7.80;;;10.30;99.90;;;;;;4989505;28;20248;-69
2020/12/15 00:04:13;;;;;;;9.27;8.27;;;10.30;99.90;;;;;;5005987;28;20209;-69
2020/12/15 00:06:40;;;;;;;8.70;7.70;;;10.30;99.90;;;;;;5013427;28;20193;-70
2020/12/15 00:09:06;;;;;;;10.57;8.57;;;10.40;99.90;;;;;;5011114;28;20283;-69
2020/12/15 00:11:33;;;;;;;10.63;9.53;;;10.40;99.90;;;;;;5005937;28;20252;-69
2020/12/15 00:13:59;;;;;;;11.67;9.63;;;10.40;99.90;;;;;;4988617;28;20252;-69
2020/12/15 00:16:26;;;;;;;11.87;9.53;;;10.40;99.90;;;;;;4987109;28;20205;-70
2020/12/15 00:18:52;;;;;;;13.03;9.60;;;10.40;99.90;;;;;;4988564;28;20229;-68
2020/12/15 00:21:20;;;;;;;10.87;9.77;;;10.40;99.90;;;;;;4987701;28;20213;-69
2020/12/15 00:23:52;;;;;;;12.43;9.93;;;10.40;99.90;;;;;;4988187;28;20221;-69
2020/12/15 00:26:19;;;;;;;12.93;10.83;;;10.30;99.90;;;;;;4987079;28;21171;-68
2020/12/15 00:28:48;;;;;;;13.57;10.17;;;10.30;99.90;;;;;;4987257;28;20336;-69
2020/12/15 00:31:15;;;;;;;13.93;10.43;;;10.30;99.90;;;;;;4991171;28;20229;-69
2020/12/15 00:33:42;;;;;;;13.80;11.03;;;10.30;99.90;;;;;;4988275;28;20331;-69
2020/12/15 00:36:08;;;;;;;14.83;11.53;;;10.30;99.90;;;;;;4986366;28;20247;-69
2020/12/15 00:38:35;;;;;;;14.77;12.07;;;10.20;99.90;;;;;;4982324;28;20213;-68
2020/12/15 00:41:02;;;;;;;16.00;12.93;;;10.20;99.90;;;;;;4986691;28;20194;-69
2020/12/15 00:43:28;;;;;;;13.97;12.40;;;10.20;99.90;;;;;;4985717;28;20673;-70
2020/12/15 00:45:55;;;;;;;15.33;12.23;;;10.20;99.90;;;;;;4988834;28;20629;-69
2020/12/15 00:48:21;;;;;;;17.00;12.70;;;10.20;99.90;;;;;;4987480;28;20252;-68
2020/12/15 00:50:48;;;;;;;15.33;13.07;;;10.10;99.90;;;;;;4991941;28;20232;-69
2020/12/15 00:53:14;;;;;;;16.90;12.93;;;10.10;99.90;;;;;;4990194;28;20201;-69
2020/12/15 00:55:41;;;;;;;15.07;12.67;;;10.00;99.90;;;;;;4990721;28;20778;-69
2020/12/15 00:58:08;;;;;;;15.00;12.50;;;10.10;99.90;;;;;;4990062;28;20260;-70
2020/12/15 01:00:34;;;;;;;14.63;13.00;;;10.00;99.90;;;;;;4995277;28;20236;-69
2020/12/15 01:03:01;;;;;;;15.47;12.27;;;10.00;99.90;;;;;;4990974;28;20206;-69
2020/12/15 01:05:27;;;;;;;18.77;13.83;;;10.00;99.90;;;;;;4988521;28;20781;-69
2020/12/15 01:07:54;;;;;;;18.33;13.23;;;10.00;99.90;;;;;;4984428;28;20312;-70
2020/12/15 01:10:21;;;;;;;18.43;14.10;;;10.00;99.90;;;;;;4987239;28;20219;-69
2020/12/15 01:12:48;;;;;;;16.60;12.87;;;10.00;99.90;;;;;;4984323;28;20721;-69
2020/12/15 01:15:15;;;;;;;17.10;12.83;;;10.00;99.90;;;;;;4986687;28;20206;-68
2020/12/15 01:17:41;;;;;;;19.17;13.63;;;10.00;99.90;;;;;;4986290;28;20328;-68
2020/12/15 01:20:08;;;;;;;18.10;14.83;;;10.00;99.90;;;;;;4985577;28;20298;-68
2020/12/15 01:22:34;;;;;;;16.40;14.30;;;9.90;99.90;;;;;;4985009;28;20213;-68
2020/12/15 01:25:01;;;;;;;18.93;15.43;;;9.90;99.90;;;;;;4985786;28;20228;-68
2020/12/15 01:27:27;;;;;;;16.30;14.10;;;10.00;99.90;;;;;;4987516;28;21155;-68
2020/12/15 01:29:54;;;;;;;19.27;14.67;;;10.10;99.90;;;;;;4987195;28;20667;-68
2020/12/15 01:32:21;;;;;;;19.07;14.67;;;10.10;99.90;;;;;;4986989;28;21875;-68
2020/12/15 01:34:47;;;;;;;16.83;14.13;;;10.10;99.90;;;;;;4987091;28;20283;-68
2020/12/15 01:37:14;;;;;;;17.40;12.53;;;10.20;99.90;;;;;;4990612;28;20250;-69
2020/12/15 01:39:40;;;;;;;14.87;11.90;;;10.10;99.90;;;;;;4987879;28;20218;-68
2020/12/15 01:42:08;;;;;;;15.70;12.23;;;10.20;99.90;;;;;;4987890;28;20269;-69
2020/12/15 01:44:35;;;;;;;13.17;11.53;;;10.20;99.90;;;;;;4993005;28;20237;-68
2020/12/15 01:47:01;;;;;;;13.93;11.70;;;10.20;99.90;;;;;;4988176;28;20658;-68
2020/12/15 01:49:29;;;;;;;13.43;11.67;;;10.20;99.90;;;;;;4987769;28;20264;-68
2020/12/15 01:51:56;;;;;;;12.60;11.30;;;10.20;99.90;;;;;;4983989;28;20765;-70
2020/12/15 01:54:22;;;;;;;12.90;11.23;;;10.20;99.90;;;;;;4992368;28;20307;-68
2020/12/15 01:56:49;;;;;;;15.73;11.00;;;10.20;99.90;;;;;;4991277;28;20679;-68
2020/12/15 01:59:15;;;;;;;12.27;10.63;;;10.10;99.90;;;;;;4985871;28;20237;-69
2020/12/15 02:01:44;;;;;;;13.60;11.23;;;10.10;99.90;;;;;;4987510;28;20198;-68
2020/12/15 02:04:11;;;;;;;13.80;10.87;;;10.10;99.90;;;;;;4989041;28;20675;-69
2020/12/15 02:06:39;;;;;;;14.13;11.73;;;10.10;99.90;;;;;;4987180;28;20205;-68
2020/12/15 02:09:06;;;;;;;18.90;12.23;;;10.10;99.90;;;;;;4985777;28;20292;-69
2020/12/15 02:11:33;;;;;;;14.07;12.20;;;10.10;99.90;;;;;;4988130;28;20229;-68
2020/12/15 02:14:00;;;;;;;16.13;11.67;;;10.20;99.90;;;;;;4989814;28;22119;-67
2020/12/15 02:16:29;;;;;;;15.17;12.93;;;10.20;99.90;;;;;;4990521;28;20451;-68
2020/12/15 02:18:55;;;;;;;14.40;12.53;;;10.20;99.90;;;;;;4989561;28;20242;-69
2020/12/15 02:21:22;;;;;;;14.77;12.03;;;10.20;99.90;;;;;;4987518;28;20209;-69
2020/12/15 02:23:49;;;;;;;15.43;11.83;;;10.30;99.90;;;;;;4989690;28;20201;-68
2020/12/15 02:26:16;;;;;;;16.47;11.67;;;10.30;99.90;;;;;;4987208;28;20310;-68
2020/12/15 02:28:42;;;;;;;13.70;11.87;;;10.30;99.90;;;;;;4987372;28;20361;-68
2020/12/15 02:31:09;;;;;;;13.37;11.87;;;10.30;99.90;;;;;;4991404;28;20258;-67
2020/12/15 02:33:35;;;;;;;15.23;12.03;;;10.30;99.90;;;;;;4989866;28;20272;-68
2020/12/15 02:36:02;;;;;;;13.00;11.67;;;10.30;99.90;;;;;;4991590;28;20209;-69
2020/12/15 02:38:28;;;;;;;14.23;12.70;;;10.30;99.90;;;;;;4991875;28;20255;-68
2020/12/15 02:40:56;;;;;;;14.37;12.10;;;10.30;99.90;;;;;;4988969;28;20269;-67
2020/12/15 02:43:22;;;;;;;14.90;13.40;;;10.30;99.90;;;;;;4985910;28;20225;-69
2020/12/15 02:45:49;;;;;;;13.97;12.57;;;10.30;99.90;;;;;;4988388;28;20209;-68
2020/12/15 02:48:15;;;;;;;14.90;12.83;;;10.30;99.90;;;;;;4993127;28;22090;-69
2020/12/15 02:50:42;;;;;;;15.10;12.83;;;10.30;99.90;;;;;;4989963;28;20681;-68
2020/12/15 02:53:08;;;;;;;15.23;13.63;;;10.30;99.90;;;;;;4995496;28;20968;-68
2020/12/15 02:55:35;;;;;;;13.77;12.37;;;10.30;99.90;;;;;;4994161;28;20216;-69
2020/12/15 02:58:02;;;;;;;13.83;12.27;;;10.40;99.90;;;;;;4988815;28;20283;-69
2020/12/15 03:00:28;;;;;;;14.23;11.90;;;10.40;99.90;;;;;;4994390;28;20245;-68
2020/12/15 03:02:55;;;;;;;16.33;13.20;;;10.40;99.90;;;;;;4989244;28;20233;-68
2020/12/15 03:05:22;;;;;;;16.30;13.13;;;10.40;99.90;;;;;;4988167;28;20205;-69
2020/12/15 03:07:49;;;;;;;14.53;13.00;;;10.40;99.90;;;;;;4986358;28;20343;-69
2020/12/15 03:10:16;;;;;;;15.27;12.30;;;10.40;99.90;;;;;;4988643;28;20256;-69
2020/12/15 03:12:42;;;;;;;14.00;12.57;;;10.40;99.90;;;;;;4988257;28;20233;-68
2020/12/15 03:15:10;;;;;;;14.60;13.07;;;10.40;99.90;;;;;;4986742;28;20234;-69
2020/12/15 03:17:36;;;;;;;15.40;13.07;;;10.40;99.90;;;;;;4987294;28;20457;-69
2020/12/15 03:20:03;;;;;;;14.97;12.90;;;10.40;99.90;;;;;;4987431;28;20239;-68
2020/12/15 03:22:30;;;;;;;13.93;12.27;;;10.40;99.90;;;;;;4988398;28;20205;-69
2020/12/15 03:24:56;;;;;;;13.40;12.00;;;10.40;99.90;;;;;;4989024;28;20201;-68
2020/12/15 03:27:23;;;;;;;14.43;12.93;;;10.40;99.90;;;;;;4990197;28;20201;-69
2020/12/15 03:29:49;;;;;;;13.60;12.20;;;10.40;99.90;;;;;;4989549;28;20255;-68
2020/12/15 03:32:16;;;;;;;14.20;12.23;;;10.40;99.90;;;;;;4985362;28;20209;-69
2020/12/15 03:34:43;;;;;;;14.70;12.33;;;10.40;99.90;;;;;;4990078;28;20664;-69
2020/12/15 03:37:09;;;;;;;16.30;12.87;;;10.40;99.90;;;;;;4989386;28;20228;-69
2020/12/15 03:39:36;;;;;;;17.37;13.27;;;10.30;99.90;;;;;;4989651;28;20264;-68
2020/12/15 03:42:02;;;;;;;18.60;12.70;;;10.30;99.90;;;;;;4988451;28;20252;-68
2020/12/15 03:44:28;;;;;;;15.57;13.43;;;10.30;99.90;;;;;;4988320;28;20599;-68
2020/12/15 03:46:55;;;;;;;14.43;12.17;;;10.30;99.90;;;;;;4991527;28;20284;-68
2020/12/15 03:49:22;;;;;;;15.80;13.70;;;10.30;99.90;;;;;;4992281;28;20231;-68
2020/12/15 03:51:49;;;;;;;15.33;13.17;;;10.30;99.90;;;;;;4995018;28;20220;-68
2020/12/15 03:54:15;;;;;;;15.10;13.17;;;10.30;99.90;;;;;;4990598;28;20829;-69
2020/12/15 03:56:42;;;;;;;16.23;12.97;;;10.30;99.90;;;;;;4989062;28;20206;-68
2020/12/15 03:59:08;;;;;;;17.70;14.47;;;10.30;99.90;;;;;;4998104;28;20729;-69
2020/12/15 04:01:35;;;;;;;16.60;13.47;;;10.30;99.90;;;;;;4989014;28;20197;-69
2020/12/15 04:04:01;;;;;;;16.10;14.37;;;10.30;99.90;;;;;;4987477;28;20193;-68
2020/12/15 04:06:28;;;;;;;17.63;13.57;;;10.30;99.90;;;;;;4989076;28;20248;-70
2020/12/15 04:08:55;;;;;;;16.03;14.33;;;10.30;99.90;;;;;;4989105;28;20225;-70
2020/12/15 04:11:21;;;;;;;15.60;13.83;;;10.30;99.90;;;;;;4988754;28;20262;-68
2020/12/15 04:13:48;;;;;;;16.73;14.40;;;10.30;99.90;;;;;;4991338;28;20268;-68
2020/12/15 04:16:14;;;;;;;16.27;14.30;;;10.30;99.90;;;;;;4988201;28;20802;-68
2020/12/15 04:18:41;;;;;;;17.80;14.57;;;10.30;99.90;;;;;;4988112;28;20649;-68
2020/12/15 04:21:09;;;;;;;16.93;14.60;;;10.30;99.90;;;;;;4990257;28;20229;-68
2020/12/15 04:23:37;;;;;;;18.83;14.90;;;10.30;99.90;;;;;;4989038;28;20326;-68
2020/12/15 04:26:03;;;;;;;18.07;14.93;;;10.30;99.90;;;;;;4989276;28;20342;-67
2020/12/15 04:28:30;;;;;;;16.93;14.37;;;10.20;99.90;;;;;;4989448;28;20228;-68
2020/12/15 04:30:56;;;;;;;18.23;15.07;;;10.20;99.90;;;;;;4989175;28;20201;-68
2020/12/15 04:33:23;;;;;;;17.10;15.17;;;10.20;99.90;;;;;;4989097;28;20210;-68
2020/12/15 04:35:49;;;;;;;16.23;14.17;;;10.20;99.90;;;;;;4988215;28;20256;-69
2020/12/15 04:38:16;;;;;;;16.13;13.87;;;10.20;99.90;;;;;;4987741;28;20260;-68
2020/12/15 04:40:43;;;;;;;18.87;14.37;;;10.20;99.90;;;;;;4987935;28;20198;-69
2020/12/15 04:43:11;;;;;;;19.53;14.73;;;10.20;99.90;;;;;;4987468;28;20264;-69
2020/12/15 04:45:37;;;;;;;16.13;14.40;;;10.20;99.90;;;;;;4988569;28;20563;-68
2020/12/15 04:48:06;;;;;;;16.53;14.83;;;10.20;99.90;;;;;;4987579;28;20633;-68
2020/12/15 04:50:34;;;;;;;19.73;15.00;;;10.20;99.90;;;;;;4993789;28;20224;-68
2020/12/15 04:53:09;;;;;;;17.13;14.50;;;10.10;99.90;;;;;;4989723;28;22360;-68
2020/12/15 04:55:36;;;;;;;17.33;14.90;;;10.10;99.90;;;;;;5001969;28;20203;-68
2020/12/15 04:58:04;;;;;;;15.43;13.80;;;10.20;99.90;;;;;;5012085;28;20235;-68
2020/12/15 05:00:31;;;;;;;16.90;13.77;;;10.20;99.90;;;;;;5010555;28;20655;-68
2020/12/15 05:02:59;;;;;;;15.97;14.27;;;10.20;99.90;;;;;;5010703;28;20201;-69
2020/12/15 05:05:26;;;;;;;18.90;15.00;;;10.20;99.90;;;;;;5012892;28;20193;-69
2020/12/15 05:07:53;;;;;;;15.53;13.93;;;10.20;99.90;;;;;;5012810;28;20205;-68
2020/12/15 05:10:21;;;;;;;15.73;14.13;;;10.20;99.90;;;;;;4997665;28;20297;-68
2020/12/15 05:12:48;;;;;;;16.00;14.40;;;10.30;99.90;;;;;;5001857;28;20205;-69
2020/12/15 05:15:17;;;;;;;19.13;14.90;;;10.20;99.90;;;;;;5007549;28;20196;-69
2020/12/15 05:17:44;;;;;;;16.60;14.17;;;10.30;99.90;;;;;;5004311;28;20205;-68
2020/12/15 05:20:15;;;;;;;16.13;14.07;;;10.30;99.90;;;;;;5004400;28;20233;-68
2020/12/15 05:22:44;;;;;;;15.43;13.63;;;10.30;99.90;;;;;;5004174;28;20196;-68
2020/12/15 05:25:21;;;;;;;16.77;14.13;;;10.30;99.90;;;;;;5007349;28;20262;-68
2020/12/15 05:27:48;;;;;;;17.60;14.57;;;10.30;99.90;;;;;;5003942;28;20221;-69
2020/12/15 05:30:15;;;;;;;16.10;13.70;;;10.20;99.90;;;;;;5006597;28;20200;-68
2020/12/15 05:32:50;;;;;;;15.67;13.83;;;10.10;99.90;;;;;;5004117;28;20664;-69
2020/12/15 05:35:23;;;;;;;16.73;13.40;;;10.10;99.90;;;;;;4999298;28;20204;-68
2020/12/15 05:37:50;;;;;;;20.13;14.97;;;10.00;99.90;;;;;;4995895;28;20189;-69
2020/12/15 05:40:17;;;;;;;17.20;14.37;;;10.00;99.90;;;;;;5007920;28;20208;-69
2020/12/15 05:42:51;;;;;;;16.07;14.37;;;9.90;99.90;;;;;;5009193;28;20235;-68
2020/12/15 05:45:20;;;;;;;19.53;15.17;;;10.00;99.90;;;;;;4996386;28;20206;-68
2020/12/15 05:47:48;;;;;;;16.67;14.33;;;10.00;99.90;;;;;;5008628;28;20662;-69
2020/12/15 05:50:20;;;;;;;16.13;14.00;;;10.00;99.90;;;;;;5007271;28;20279;-69
2020/12/15 05:52:57;;;;;;;18.43;14.83;;;10.00;99.90;;;;;;5014411;28;20280;-69
2020/12/15 05:55:24;;;;;;;18.23;14.67;;;10.10;99.90;;;;;;5016320;28;20197;-69
2020/12/15 05:57:51;;;;;;;16.50;14.77;;;10.00;99.90;;;;;;5016324;28;20251;-68
2020/12/15 06:00:19;;;;;;;17.03;14.43;;;10.10;99.90;;;;;;5011250;28;20610;-68
2020/12/15 06:02:57;;;;;;;17.30;15.07;;;10.00;99.90;;;;;;5012167;28;20243;-68
2020/12/15 06:05:26;;;;;;;17.60;14.43;;;10.00;99.90;;;;;;4997284;28;20304;-68
2020/12/15 06:07:54;;;;;;;17.27;15.47;;;9.90;99.90;;;;;;5014156;28;20201;-68
2020/12/15 06:10:21;;;;;;;18.10;15.33;;;9.90;99.90;;;;;;5015881;28;20276;-68
2020/12/15 06:12:49;;;;;;;18.20;16.30;;;9.90;99.90;;;;;;5010947;28;20704;-68
2020/12/15 06:15:16;;;;;;;19.20;15.23;;;9.80;99.90;;;;;;5006068;28;20264;-68
2020/12/15 06:17:48;;;;;;;19.13;15.70;;;9.80;99.90;;;;;;5009596;28;20617;-68
2020/12/15 06:20:19;;;;;;;20.37;16.23;;;9.70;99.90;;;;;;5004883;28;20641;-69
2020/12/15 06:22:47;;;;;;;19.43;15.83;;;9.70;99.90;;;;;;5008534;28;20197;-68
2020/12/15 06:25:27;;;;;;;18.80;15.67;;;9.70;99.90;;;;;;5009158;28;20202;-69
2020/12/15 06:28:01;;;;;;;20.43;16.60;;;9.70;99.90;;;;;;5007234;28;20216;-69
2020/12/15 06:30:31;;;;;;;21.23;17.20;;;9.80;99.90;;;;;;5008353;28;20367;-68
2020/12/15 06:33:00;;;;;;;22.13;16.97;;;9.80;99.90;;;;;;5008512;28;20241;-68
2020/12/15 06:35:27;;;;;;;19.43;16.30;;;9.80;99.90;;;;;;5006616;28;20200;-68
2020/12/15 06:37:53;;;;;;;22.07;16.73;;;9.80;99.90;;;;;;5009500;28;20196;-69
2020/12/15 06:40:19;;;;;;;19.27;16.77;;;9.80;99.90;;;;;;5010576;28;20310;-68
2020/12/15 06:42:50;;;;;;;19.90;16.67;;;9.80;99.90;;;;;;5008248;28;20731;-68
2020/12/15 06:45:21;;;;;;;18.53;16.50;;;9.80;99.90;;;;;;5006834;28;20225;-68
2020/12/15 06:47:56;;;;;;;22.60;16.37;;;9.80;99.90;;;;;;5007431;28;20791;-69
2020/12/15 06:50:24;;;;;;;18.83;16.37;;;9.80;99.90;;;;;;5003752;28;20346;-68
2020/12/15 06:52:50;;;;;;;20.00;16.27;;;9.90;99.90;;;;;;5007718;28;20201;-68
2020/12/15 06:55:28;;;;;;;22.23;15.83;;;9.90;99.90;;;;;;5007595;28;20594;-69
2020/12/15 06:57:58;;;;;;;18.43;15.87;;;9.90;99.90;;;;;;5005187;28;20604;-68
2020/12/15 07:00:34;;;;;;;19.03;16.47;;;9.90;99.90;;;;;;5012275;28;20563;-68
2020/12/15 07:03:01;;;;;;;17.50;15.27;;;10.00;99.90;;;;;;5008721;28;20204;-68
2020/12/15 07:05:29;;;;;;;20.20;16.33;;;9.90;99.90;;;;;;5007332;28;20554;-68
2020/12/15 07:07:57;;;;;;;17.07;15.27;;;10.00;99.90;;;;;;5010661;28;20193;-68
2020/12/15 07:10:25;;;;;;;19.23;15.17;;;10.00;99.90;;;;;;5007395;28;20682;-68
2020/12/15 07:12:52;;;;;;;21.13;15.97;;;9.90;99.90;;;;;;5003826;28;20197;-68
2020/12/15 07:15:20;;;;;;;18.50;15.50;;;9.90;99.90;;;;;;5013024;28;20577;-68
2020/12/15 07:17:47;;;;;;;17.10;15.30;;;9.90;99.90;;;;;;5017614;28;20204;-68
2020/12/15 07:20:14;;;;;;;18.30;15.27;;;9.90;99.90;;;;;;5002488;28;20282;-68
2020/12/15 07:22:42;;;;;;;20.40;15.87;;;9.90;99.90;;;;;;5014347;28;20197;-68
2020/12/15 07:25:10;;;;;;;19.20;16.60;;;9.90;99.90;;;;;;5012246;28;20204;-68
2020/12/15 07:27:38;;;;;;;19.03;16.23;;;9.90;99.90;;;;;;5006389;28;20248;-68
2020/12/15 07:30:08;;;;;;;18.00;15.67;;;9.90;99.90;;;;;;4992617;28;20229;-69
2020/12/15 07:32:36;;;;;;;18.87;16.23;;;9.90;99.90;;;;;;4993092;28;20284;-69
2020/12/15 07:35:05;;;;;;;17.77;15.87;;;9.90;99.90;;;;;;5013515;28;20204;-69
2020/12/15 07:37:34;;;;;;;23.80;17.60;;;9.90;99.90;;;;;;5013554;28;20197;-68
2020/12/15 07:40:06;;;;;;;19.43;16.33;;;9.90;99.90;;;;;;5013277;28;20204;-69
2020/12/15 07:42:33;;;;;;;18.27;16.30;;;9.90;99.90;;;;;;5014182;28;20224;-68
2020/12/15 07:45:01;;;;;;;19.70;16.37;;;9.90;99.90;;;;;;5010336;28;20197;-68
2020/12/15 07:47:27;;;;;;;19.17;15.90;;;9.80;99.90;;;;;;5008178;28;20198;-68
2020/12/15 07:49:55;;;;;;;20.40;16.83;;;9.90;99.90;;;;;;4996347;28;20225;-68
2020/12/15 07:52:32;;;;;;;18.67;15.33;;;9.90;99.90;;;;;;5013352;28;20201;-69
2020/12/15 07:55:10;;;;;;;19.60;16.00;;;9.80;99.90;;;;;;5001825;28;20658;-68
2020/12/15 07:57:38;;;;;;;19.70;16.17;;;9.80;99.90;;;;;;5012449;28;20205;-68
2020/12/15 08:00:15;;;;;;;19.53;16.70;;;9.80;99.90;;;;;;5014162;28;20223;-68
2020/12/15 08:02:43;;;;;;;19.23;16.47;;;9.80;99.90;;;;;;5012888;28;20197;-69
2020/12/15 08:05:14;;;;;;;18.80;16.80;;;9.90;99.90;;;;;;5008823;28;20201;-68
2020/12/15 08:07:43;;;;;;;20.20;17.13;;;9.80;99.90;;;;;;5009897;28;20224;-68
2020/12/15 08:10:11;;;;;;;20.33;16.83;;;9.90;99.90;;;;;;5005438;28;22187;-70
2020/12/15 08:12:40;;;;;;;21.57;16.77;;;9.80;99.90;;;;;;5005100;28;20206;-69
2020/12/15 08:15:07;;;;;;;20.83;17.23;;;9.80;99.90;;;;;;5005150;28;20208;-67
2020/12/15 08:17:34;;;;;;;20.60;17.00;;;9.80;99.90;;;;;;5007608;28;20213;-67
2020/12/15 08:20:03;;;;;;;20.87;17.03;;;9.80;99.90;;;;;;5002438;28;22064;-68
2020/12/15 08:22:30;;;;;;;21.00;17.30;;;9.80;99.90;;;;;;5000659;28;20252;-69
2020/12/15 08:24:57;;;;;;;20.90;17.17;;;9.80;99.90;;;;;;5001013;28;20228;-68
2020/12/15 08:27:26;;;;;;;20.07;16.53;;;9.80;99.90;;;;;;5012002;28;20219;-67
2020/12/15 08:29:53;;;;;;;18.93;16.00;;;9.80;99.90;;;;;;5012575;28;20225;-68
2020/12/15 08:32:27;;;;;;;20.77;16.10;;;9.80;99.90;;;;;;5012143;28;20563;-69
2020/12/15 08:35:01;;;;;;;21.73;16.67;;;9.80;99.90;;;;;;5010332;28;22089;-68
2020/12/15 08:37:28;;;;;;;19.10;16.70;;;9.80;99.90;;;;;;5000623;28;20610;-69
2020/12/15 08:39:55;;;;;;;20.53;16.07;;;9.90;99.90;;;;;;5013863;28;20235;-68
2020/12/15 08:42:23;;;;;;;19.30;16.47;;;9.90;99.90;;;;;;5008875;28;20196;-69
2020/12/15 08:44:50;;;;;;;18.23;16.03;;;9.90;99.90;;;;;;5010547;28;20721;-68
2020/12/15 08:47:18;;;;;;;18.37;15.90;;;9.90;99.90;;;;;;5005763;28;20205;-69
2020/12/15 08:49:45;;;;;;;19.80;15.63;;;9.90;99.90;;;;;;5013601;28;20644;-69
2020/12/15 08:52:20;;;;;;;20.03;17.10;;;9.90;99.90;;;;;;5010992;28;20294;-69
2020/12/15 08:54:47;;;;;;;19.50;16.23;;;9.90;99.90;;;;;;5011447;28;20301;-68
2020/12/15 08:57:15;;;;;;;19.13;16.80;;;9.90;99.90;;;;;;5012093;28;20207;-68
2020/12/15 08:59:42;;;;;;;17.97;15.93;;;9.90;99.90;;;;;;5007794;28;20213;-69
2020/12/15 09:02:11;;;;;;;18.33;16.20;;;10.00;99.90;;;;;;5009469;28;20209;-68
2020/12/15 09:04:38;;;;;;;22.17;16.27;;;10.00;99.90;;;;;;5009277;28;20999;-69
2020/12/15 09:07:12;;;;;;;19.73;16.03;;;10.00;99.90;;;;;;5009825;28;20667;-69
2020/12/15 09:09:39;;;;;;;20.33;16.07;;;10.00;99.90;;;;;;5011181;28;20283;-69
2020/12/15 09:12:05;;;;;;;19.47;16.57;;;10.00;99.90;;;;;;5009799;28;20208;-67
2020/12/15 09:14:32;;;;;;;18.03;15.40;;;10.00;99.90;;;;;;5000744;28;20232;-68
2020/12/15 09:16:59;;;;;;;19.10;16.03;;;10.00;99.90;;;;;;5003370;28;20205;-68
2020/12/15 09:19:27;;;;;;;19.53;16.40;;;10.10;99.90;;;;;;4993943;28;20229;-68
2020/12/15 09:21:59;;;;;;;22.43;18.13;;;10.10;99.90;;;;;;4999015;28;20213;-68
2020/12/15 09:24:26;;;;;;;23.20;17.73;;;10.10;99.90;;;;;;5002377;28;20288;-68
2020/12/15 09:26:53;;;;;;;22.00;17.63;;;10.10;99.90;;;;;;5004010;28;20676;-68
2020/12/15 09:29:20;;;;;;;20.93;17.50;;;10.10;99.90;;;;;;5006069;28;20265;-68
2020/12/15 09:31:52;;;;;;;20.60;17.77;;;10.10;99.90;;;;;;5006496;28;20212;-68
2020/12/15 09:34:19;;;;;;;22.43;18.07;;;10.10;99.90;;;;;;5007239;28;20538;-67
2020/12/15 09:36:56;;;;;;;20.17;16.93;;;10.20;99.90;;;;;;5001356;28;20200;-68
2020/12/15 09:39:24;;;;;;;21.23;17.60;;;10.10;99.90;;;;;;5001302;28;20276;-67
2020/12/15 09:41:51;;;;;;;22.97;18.83;;;10.20;99.90;;;;;;4995112;28;20262;-67
2020/12/15 09:44:17;;;;;;;21.73;17.67;;;10.10;99.90;;;;;;5002541;28;20212;-67
2020/12/15 09:46:44;;;;;;;23.30;18.53;;;10.10;99.90;;;;;;5000230;28;20221;-67
2020/12/15 09:49:11;;;;;;;23.13;18.27;;;10.10;99.90;;;;;;5012360;28;20224;-68
2020/12/15 09:51:37;;;;;;;23.73;18.80;;;10.10;99.90;;;;;;4996156;28;20205;-69
2020/12/15 09:54:04;;;;;;;22.00;18.50;;;10.10;99.90;;;;;;4991103;28;20256;-68
2020/12/15 09:56:31;;;;;;;24.27;19.23;;;10.00;99.90;;;;;;4979644;28;20209;-69
2020/12/15 09:58:58;;;;;;;24.17;19.13;;;10.00;99.90;;;;;;4976316;28;20674;-70
2020/12/15 10:01:25;;;;;;;23.03;18.43;;;10.00;99.90;;;;;;4977428;28;20362;-69
2020/12/15 10:03:51;;;;;;;22.87;18.90;;;10.00;99.90;;;;;;4976713;28;20305;-69
2020/12/15 10:06:18;;;;;;;22.37;19.07;;;10.00;99.90;;;;;;4978961;28;20206;-69
2020/12/15 10:08:44;;;;;;;24.07;19.27;;;10.00;99.90;;;;;;4980802;28;20257;-70
2020/12/15 10:11:15;;;;;;;24.70;19.60;;;10.00;99.90;;;;;;4979480;28;20210;-69
2020/12/15 10:13:41;;;;;;;24.47;19.67;;;10.00;99.90;;;;;;4983948;28;20204;-69
2020/12/15 10:16:09;;;;;;;21.77;19.03;;;10.00;99.90;;;;;;4985135;28;20206;-68
2020/12/15 10:18:36;;;;;;;25.13;20.10;;;10.10;99.90;;;;;;4993993;28;20212;-68
2020/12/15 10:21:02;;;;;;;21.97;18.93;;;10.10;99.90;;;;;;5008924;28;20659;-68
2020/12/15 10:23:29;;;;;;;24.43;19.30;;;10.10;99.90;;;;;;5012153;28;20201;-69
2020/12/15 10:25:56;;;;;;;26.70;19.07;;;10.20;99.90;;;;;;5001630;28;20209;-69
2020/12/15 10:28:23;;;;;;;21.90;18.67;;;10.20;99.90;;;;;;5006044;28;20206;-69
2020/12/15 10:30:50;;;;;;;24.33;18.67;;;10.30;99.90;;;;;;5011156;28;20200;-69
2020/12/15 10:33:16;;;;;;;25.73;19.10;;;10.40;99.90;;;;;;5011718;28;20204;-68
2020/12/15 10:35:43;;;;;;;21.27;17.73;;;10.40;99.90;;;;;;4996925;28;20201;-70
2020/12/15 10:38:12;;;;;;;19.97;17.40;;;10.50;99.90;;;;;;4999183;28;20255;-78
2020/12/15 10:40:41;;;;;;;22.70;18.80;;;10.60;99.90;;;;;;5005235;28;20208;-69
2020/12/15 10:43:08;;;;;;;22.33;18.00;;;10.70;99.90;;;;;;5000155;28;20210;-69
2020/12/15 10:45:35;;;;;;;19.93;16.13;;;10.80;99.90;;;;;;5002159;28;20228;-68
2020/12/15 10:48:02;;;;;;;23.77;17.33;;;10.80;99.90;;;;;;5013690;28;20680;-69
2020/12/15 10:50:28;;;;;;;18.40;15.80;;;10.80;99.90;;;;;;4988493;28;20256;-69
2020/12/15 10:52:56;;;;;;;22.00;15.87;;;10.80;99.90;;;;;;4984319;28;20229;-69
2020/12/15 10:55:23;;;;;;;17.80;15.00;;;10.80;99.90;;;;;;4985517;28;20332;-69
2020/12/15 10:57:50;;;;;;;19.33;15.80;;;10.70;99.90;;;;;;4984972;28;20620;-69
2020/12/15 11:00:16;;;;;;;17.53;15.57;;;10.70;99.90;;;;;;4981496;28;20220;-68
2020/12/15 11:02:43;;;;;;;17.73;15.37;;;10.70;99.90;;;;;;4985408;28;20206;-69
2020/12/15 11:05:10;;;;;;;20.87;16.20;;;10.60;99.90;;;;;;4984879;28;20213;-69
2020/12/15 11:07:36;;;;;;;19.67;16.93;;;10.50;99.90;;;;;;4984925;28;20241;-70
2020/12/15 11:10:03;;;;;;;22.67;16.70;;;10.50;99.90;;;;;;4984299;28;20231;-69
2020/12/15 11:12:29;;;;;;;18.77;16.53;;;10.50;99.90;;;;;;4986064;28;20204;-68
2020/12/15 11:14:56;;;;;;;21.03;16.83;;;10.50;99.90;;;;;;4982428;28;20264;-69
2020/12/15 11:17:22;;;;;;;21.37;17.60;;;10.60;99.90;;;;;;4978581;28;20292;-68
2020/12/15 11:19:49;;;;;;;20.00;15.80;;;10.70;99.90;;;;;;4993704;28;20254;-69
2020/12/15 11:22:16;;;;;;;21.77;18.47;;;10.80;99.90;;;;;;4997371;28;20196;-69
2020/12/15 11:24:42;;;;;;;17.63;15.73;;;10.80;99.90;;;;;;4993313;28;20233;-69
2020/12/15 11:27:09;;;;;;;19.77;15.57;;;11.00;99.90;;;;;;4994329;28;20293;-69
2020/12/15 11:29:35;;;;;;;19.27;15.57;;;11.20;99.90;;;;;;4993803;28;20236;-69
2020/12/15 11:32:01;;;;;;;14.90;13.20;;;11.40;99.90;;;;;;4994057;28;20201;-68
2020/12/15 11:34:28;;;;;;;14.40;12.90;;;11.60;99.90;;;;;;4995934;28;20200;-69
2020/12/15 11:36:55;;;;;;;14.77;13.17;;;11.70;99.90;;;;;;4999550;28;20284;-69
2020/12/15 11:39:22;;;;;;;16.93;12.53;;;11.80;99.90;;;;;;4996629;28;20233;-69
2020/12/15 11:41:49;;;;;;;13.70;11.13;;;12.00;99.90;;;;;;5001606;28;20283;-68
2020/12/15 11:44:18;;;;;;;13.10;11.13;;;12.10;99.90;;;;;;4997928;28;20259;-69
2020/12/15 11:46:44;;;;;;;12.93;11.00;;;12.30;99.90;;;;;;5006914;28;20203;-69
2020/12/15 11:49:11;;;;;;;11.67;10.10;;;12.30;99.90;;;;;;5013710;28;20240;-69
2020/12/15 11:51:37;;;;;;;12.97;11.20;;;12.30;99.90;;;;;;5011748;28;20197;-69
2020/12/15 11:54:04;;;;;;;13.73;10.27;;;12.10;99.90;;;;;;5010674;28;20197;-69
2020/12/15 11:56:31;;;;;;;12.00;9.40;;;12.20;99.90;;;;;;4982817;28;20233;-69
2020/12/15 11:58:57;;;;;;;11.83;10.00;;;12.20;99.90;;;;;;4982081;28;20205;-68
2020/12/15 12:01:24;;;;;;;13.73;9.87;;;12.20;99.90;;;;;;4976414;28;20615;-69
2020/12/15 12:03:50;;;;;;;12.40;9.67;;;12.30;99.90;;;;;;4982525;28;20248;-69
2020/12/15 12:06:17;;;;;;;13.03;10.00;;;12.30;99.90;;;;;;4979828;28;20205;-69
2020/12/15 12:08:43;;;;;;;11.73;10.10;;;12.40;99.90;;;;;;4976677;28;20205;-68
2020/12/15 12:11:11;;;;;;;14.20;9.87;;;12.50;99.90;;;;;;4976731;28;20671;-68
2020/12/15 12:13:37;;;;;;;11.33;10.13;;;12.50;99.90;;;;;;4973369;28;20324;-69
2020/12/15 12:16:04;;;;;;;12.43;9.93;;;12.50;99.90;;;;;;4981922;28;20295;-68
2020/12/15 12:18:30;;;;;;;11.17;9.40;;;13.00;99.90;;;;;;4977295;28;20336;-69
2020/12/15 12:20:57;;;;;;;43.87;32.40;;;13.80;99.90;;;;;;4973532;28;20221;-69
2020/12/15 12:23:23;;;;;;;14.37;12.87;;;14.80;99.90;;;;;;4973757;28;20213;-69
2020/12/15 12:25:50;;;;;;;8.47;7.17;;;15.80;99.90;;;;;;4977681;28;20219;-69
2020/12/15 12:28:17;;;;;;;9.90;7.63;;;16.30;99.90;;;;;;4975599;28;20280;-70
2020/12/15 12:30:44;;;;;;;7.43;6.30;;;16.70;99.90;;;;;;4978063;28;20220;-68
2020/12/15 12:33:10;;;;;;;7.80;6.57;;;17.00;99.90;;;;;;4975345;28;20202;-70